PHMK

Molokai Airport

Kaunakakai, Hawaii, USA
PHMK 181721Z 1818/1918 05011KT P6SM FEW025 SCT040 FM182000 05016G25KT P6SM FEW025 SCT050 FM190600 05011G20KT P6SM SCT025 SCT040
Issued Valid From Valid To
Jul-18 @ 17:21 UTC
(5 hours ago)
Jul-18 @ 18:00 UTC
(4 hours ago)
Jul-19 @ 18:00 UTC
(in 20 hours)
Expired Click to View Jul-18 @ 18:00 to Jul-18 @ 20:00
PHMK 181721Z 1818/1918 05011KT P6SM FEW025 SCT040
Wind Visibility Clouds
50° at 11 knots Greater than 6 miles
  • Few at 2,500' AGL
  • Scattered at 4,000' AGL
From Jul-18 @ 20:00 to Jul-19 @ 06:00
FM182000 05016G25KT P6SM FEW025 SCT050
Wind Visibility Clouds
50° at 16 knots
 Gusting to 25 knots
Greater than 6 miles
  • Few at 2,500' AGL
  • Scattered at 5,000' AGL
From Jul-19 @ 06:00 to Jul-19 @ 18:00
FM190600 05011G20KT P6SM SCT025 SCT040
Wind Visibility Clouds
50° at 11 knots
 Gusting to 20 knots
Greater than 6 miles
  • Scattered at 2,500' AGL
  • Scattered at 4,000' AGL
PHMK 181721Z 1818/1918 05011KT P6SM FEW025 SCT040 FM182000 05016G25KT P6SM FEW025 SCT050 FM190600 05011G20KT P6SM SCT025 SCT040
Issued Jul-18 @ 17:21 UTC
(5 hours ago)
Valid From Jul-18 @ 18:00 UTC
(4 hours ago)
Valid To Jul-19 @ 18:00 UTC
(in 20 hours)
Jul-18 @ 18:00 - Jul-18 @ 20:00
Wind Visibility
50° at 11 knots Greater than 6 miles
Clouds
  • Few at 2,500' AGL
  • Scattered at 4,000' AGL
From Jul-18 @ 20:00 - Jul-19 @ 06:00
Wind Visibility
50° at 16 knots
 Gusting to 25 knots
Greater than 6 miles
Clouds
  • Few at 2,500' AGL
  • Scattered at 5,000' AGL
From Jul-19 @ 06:00 - Jul-19 @ 18:00
Wind Visibility
50° at 11 knots
 Gusting to 20 knots
Greater than 6 miles
Clouds
  • Scattered at 2,500' AGL
  • Scattered at 4,000' AGL